Time;durP1;ratioP1;P1;durP2;ratioP2;P2;SDS_P1;SDS_P2;PMS_P1;PMS_P2;Temp;Humidity;BMP_temperature;BMP_pressure;BME280_temperature;BME280_humidity;BME280_pressure;Samples;Min_cycle;Max_cycle;Signal;HPM_P1;HPM_P2
2021/07/04 00:00:46;;;;;;;15.75;6.13;;;18.10;99.90;;;;;;20904069;28;20391;-50
2021/07/04 00:10:58;;;;;;;8.75;3.97;;;18.10;99.90;;;;;;20893048;28;20447;-49
2021/07/04 00:21:02;;;;;;;7.10;3.00;;;18.60;99.90;;;;;;20890991;28;20208;-49
2021/07/04 00:31:04;;;;;;;7.53;3.25;;;18.60;99.90;;;;;;20900982;28;20516;-49
2021/07/04 00:41:05;;;;;;;7.28;3.67;;;18.30;99.90;;;;;;20886949;28;20411;-49
2021/07/04 00:51:09;;;;;;;8.00;3.58;;;18.20;99.90;;;;;;20901884;28;20467;-49
2021/07/04 01:01:10;;;;;;;7.85;3.70;;;18.20;99.90;;;;;;20897464;28;20047;-49
2021/07/04 01:11:12;;;;;;;6.95;3.35;;;18.30;99.90;;;;;;20902099;28;20498;-49
2021/07/04 01:21:15;;;;;;;11.90;3.80;;;18.20;99.90;;;;;;20889218;28;20404;-49
2021/07/04 01:31:16;;;;;;;6.18;2.95;;;18.00;99.90;;;;;;20890148;28;20401;-49
2021/07/04 01:41:17;;;;;;;8.65;4.07;;;17.90;99.90;;;;;;20890152;28;20551;-49
2021/07/04 01:51:19;;;;;;;9.65;2.97;;;17.70;99.90;;;;;;20887269;28;20385;-49
2021/07/04 02:01:20;;;;;;;7.85;4.00;;;17.50;99.90;;;;;;20879806;28;20488;-49
2021/07/04 02:11:21;;;;;;;11.15;4.22;;;17.50;99.90;;;;;;20887688;28;20431;-49
2021/07/04 02:21:23;;;;;;;9.70;4.25;;;17.70;99.90;;;;;;20889944;28;20381;-49
2021/07/04 02:41:42;;;;;;;8.02;3.45;;;17.80;99.90;;;;;;20960644;22;20494;-91
2021/07/04 02:52:09;;;;;;;11.13;5.15;;;17.90;99.90;;;;;;20645124;28;20535;-91
2021/07/04 03:03:23;;;;;;;13.43;4.68;;;17.80;99.90;;;;;;20600555;28;20050;-91
2021/07/04 03:14:14;;;;;;;10.57;5.18;;;17.80;99.90;;;;;;20627856;28;20153;-91
2021/07/04 03:25:10;;;;;;;13.55;5.60;;;18.00;99.90;;;;;;20612105;28;20042;-91
2021/07/04 03:36:35;;;;;;;9.68;4.90;;;17.90;99.90;;;;;;20568759;28;20046;-91
2021/07/04 03:47:31;;;;;;;12.18;5.07;;;17.80;99.90;;;;;;20583014;28;20046;-91
2021/07/04 03:58:54;;;;;;;13.68;6.95;;;17.60;99.90;;;;;;20572106;28;20038;-91
2021/07/04 04:09:54;;;;;;;16.08;6.43;;;17.50;99.90;;;;;;20582109;28;20513;-91
2021/07/04 04:20:55;;;;;;;15.65;5.82;;;17.70;99.90;;;;;;20585494;28;20112;-91
2021/07/04 04:31:42;;;;;;;16.27;6.43;;;17.80;99.90;;;;;;20552083;28;20080;-91
2021/07/04 04:42:48;;;;;;;17.75;6.05;;;17.70;99.90;;;;;;20565165;28;20050;-91
2021/07/04 04:54:10;;;;;;;20.67;8.30;;;17.80;99.90;;;;;;20542097;28;20050;-92
2021/07/04 05:05:06;;;;;;;21.10;8.85;;;17.80;99.90;;;;;;20572598;28;20113;-91
2021/07/04 05:15:44;;;;;;;19.70;7.43;;;18.00;99.90;;;;;;20567659;28;20049;-91
2021/07/04 05:26:45;;;;;;;17.70;7.47;;;17.90;99.90;;;;;;20545445;28;20045;-91
2021/07/04 05:37:33;;;;;;;15.98;6.78;;;18.10;99.90;;;;;;20591234;28;20150;-91
2021/07/04 05:48:20;;;;;;;16.45;7.63;;;18.10;99.90;;;;;;20617840;28;20121;-91
2021/07/04 05:59:30;;;;;;;15.23;7.70;;;18.00;99.90;;;;;;20654863;28;20053;-90
2021/07/04 06:10:55;;;;;;;20.45;7.22;;;17.90;99.90;;;;;;20718151;28;20026;-91
2021/07/04 06:22:10;;;;;;;17.33;6.10;;;17.90;99.90;;;;;;20537584;28;20113;-91
2021/07/04 06:33:32;;;;;;;18.20;7.50;;;17.60;99.90;;;;;;20504279;28;20077;-91
2021/07/04 06:45:00;;;;;;;14.52;4.90;;;17.70;99.90;;;;;;20197989;28;20059;-91
2021/07/04 06:55:53;;;;;;;12.65;4.53;;;18.00;99.90;;;;;;20183819;28;20721;-49
2021/07/04 07:05:54;;;;;;;13.40;5.40;;;18.20;99.90;;;;;;20290856;28;20860;-48
2021/07/04 07:15:55;;;;;;;7.93;4.40;;;18.50;99.90;;;;;;20212442;28;20050;-48
2021/07/04 07:25:57;;;;;;;15.00;5.03;;;18.60;99.90;;;;;;20198453;28;20056;-49
2021/07/04 07:35:58;;;;;;;9.38;4.40;;;18.70;99.90;;;;;;20135195;28;21578;-48
2021/07/04 07:45:59;;;;;;;11.27;5.07;;;18.80;99.90;;;;;;20101879;28;21800;-49
2021/07/04 07:56:01;;;;;;;13.68;5.03;;;19.40;99.90;;;;;;20101108;28;20411;-49
2021/07/04 08:06:02;;;;;;;10.98;5.05;;;19.60;99.90;;;;;;20056248;28;20604;-49
2021/07/04 08:16:04;;;;;;;11.52;4.82;;;19.90;99.90;;;;;;20199490;28;20035;-49
2021/07/04 08:26:05;;;;;;;9.25;4.13;;;20.00;99.90;;;;;;20388945;28;21043;-49
2021/07/04 08:36:07;;;;;;;7.80;3.42;;;20.40;99.90;;;;;;20119233;28;20567;-49
2021/07/04 08:46:12;;;;;;;7.00;3.92;;;20.40;99.90;;;;;;20118699;28;20817;-49
2021/07/04 08:56:13;;;;;;;5.60;2.92;;;20.40;99.90;;;;;;20113742;28;20239;-49
2021/07/04 09:06:33;;;;;;;6.63;2.45;;;20.70;99.90;;;;;;20281529;28;20101;-49
2021/07/04 09:16:47;;;;;;;5.97;2.42;;;20.90;99.90;;;;;;20180705;28;20953;-49
2021/07/04 09:26:49;;;;;;;6.30;2.95;;;21.20;99.90;;;;;;20163407;28;20428;-49
2021/07/04 09:36:55;;;;;;;4.97;1.83;;;21.40;99.90;;;;;;20461482;28;20181;-49
2021/07/04 09:47:16;;;;;;;4.32;1.80;;;21.80;99.90;;;;;;20253297;28;20426;-49
2021/07/04 09:57:18;;;;;;;4.10;2.08;;;22.00;99.90;;;;;;20556537;28;20568;-49
2021/07/04 10:07:31;;;;;;;3.38;1.80;;;21.90;99.90;;;;;;20037319;28;20591;-49
2021/07/04 10:17:33;;;;;;;4.55;1.58;;;21.90;99.90;;;;;;20146300;28;20076;-52
2021/07/04 10:27:39;;;;;;;3.80;2.03;;;21.90;99.90;;;;;;20198082;28;20051;-49
2021/07/04 10:37:41;;;;;;;3.47;1.40;;;21.90;99.90;;;;;;20203600;28;20126;-49
2021/07/04 10:47:42;;;;;;;3.40;1.63;;;22.60;99.90;;;;;;20447928;28;20060;-49
2021/07/04 10:57:49;;;;;;;2.00;0.95;;;22.90;99.90;;;;;;20579026;28;20502;-49
2021/07/04 11:07:53;;;;;;;3.37;1.37;;;22.80;99.90;;;;;;20589173;28;20130;-49
2021/07/04 11:17:58;;;;;;;3.65;1.80;;;22.70;99.90;;;;;;20562570;28;20667;-49
2021/07/04 11:28:20;;;;;;;3.17;1.30;;;22.10;99.90;;;;;;20585045;28;20042;-48
2021/07/04 11:38:23;;;;;;;2.40;1.25;;;22.00;99.90;;;;;;20590680;28;20054;-49
2021/07/04 11:48:45;;;;;;;2.97;1.08;;;21.80;99.90;;;;;;20582056;28;20057;-48
2021/07/04 11:58:46;;;;;;;2.03;0.95;;;21.80;99.90;;;;;;20570220;28;20061;-48
2021/07/04 12:09:03;;;;;;;1.15;0.40;;;22.00;99.90;;;;;;20081965;28;20569;-48
2021/07/04 12:19:04;;;;;;;2.22;0.77;;;22.10;99.90;;;;;;20052310;28;20042;-48
2021/07/04 12:29:05;;;;;;;1.17;0.60;;;23.10;99.90;;;;;;20072493;28;20089;-48
2021/07/04 12:39:09;;;;;;;1.15;0.70;;;22.80;99.90;;;;;;20051075;28;25304;-49
2021/07/04 12:49:14;;;;;;;1.52;0.80;;;22.40;99.90;;;;;;20538919;28;20049;-49
2021/07/04 12:59:24;;;;;;;1.65;0.70;;;23.20;99.90;;;;;;20544483;28;20046;-49
2021/07/04 13:09:38;;;;;;;2.03;0.90;;;23.20;99.90;;;;;;20548609;28;20046;-49
2021/07/04 13:19:39;;;;;;;2.67;1.27;;;23.00;99.90;;;;;;20499076;28;20055;-49
2021/07/04 13:29:42;;;;;;;2.90;1.10;;;22.90;99.90;;;;;;20397123;28;20047;-48
2021/07/04 13:39:54;;;;;;;3.60;1.98;;;22.80;99.90;;;;;;20393446;28;20035;-48
2021/07/04 13:49:56;;;;;;;5.18;2.33;;;23.10;99.90;;;;;;20411780;28;20055;-49
2021/07/04 13:59:57;;;;;;;4.75;1.83;;;23.20;99.90;;;;;;20400859;28;20046;-48
2021/07/04 14:09:59;;;;;;;5.68;1.20;;;22.60;99.90;;;;;;20404708;28;20051;-48
2021/07/04 14:20:01;;;;;;;2.13;0.82;;;22.00;99.90;;;;;;20397551;28;20123;-48
2021/07/04 14:30:05;;;;;;;6.15;0.60;;;21.50;99.90;;;;;;20394286;28;20047;-48
2021/07/04 14:40:08;;;;;;;1.83;0.90;;;21.30;99.90;;;;;;20406662;28;20519;-48
2021/07/04 14:50:11;;;;;;;2.40;1.20;;;20.80;99.90;;;;;;20391240;28;20059;-48
2021/07/04 15:00:14;;;;;;;2.50;0.88;;;19.90;99.90;;;;;;20387248;28;20499;-47
2021/07/04 15:10:17;;;;;;;2.72;0.98;;;19.50;99.90;;;;;;20390622;28;20138;-48
2021/07/04 15:20:19;;;;;;;2.10;0.68;;;18.90;99.90;;;;;;20402636;28;20050;-48
2021/07/04 15:30:20;;;;;;;1.77;0.70;;;18.50;99.90;;;;;;20399398;28;20316;-48
2021/07/04 15:40:22;;;;;;;3.53;1.42;;;18.10;99.90;;;;;;20417955;28;20035;-48
2021/07/04 15:50:23;;;;;;;2.83;1.02;;;18.10;99.90;;;;;;20354434;28;20055;-49
2021/07/04 16:00:25;;;;;;;2.28;1.27;;;18.10;99.90;;;;;;20400501;28;20039;-47
2021/07/04 16:10:29;;;;;;;2.60;1.05;;;18.30;99.90;;;;;;20478061;28;20053;-48
2021/07/04 16:20:30;;;;;;;3.65;1.27;;;18.50;99.90;;;;;;20479059;28;20065;-48
2021/07/04 16:30:32;;;;;;;4.38;2.40;;;18.50;99.90;;;;;;20479842;28;20051;-49
2021/07/04 16:40:33;;;;;;;2.95;1.30;;;18.60;99.90;;;;;;20189853;28;20900;-48
2021/07/04 16:50:35;;;;;;;1.60;0.60;;;18.70;99.90;;;;;;20001242;28;26030;-49
2021/07/04 17:00:39;;;;;;;3.33;0.90;;;18.50;99.90;;;;;;19992970;28;21102;-48
2021/07/04 17:10:41;;;;;;;2.45;0.80;;;18.60;99.90;;;;;;19994646;28;20608;-48
2021/07/04 17:20:42;;;;;;;3.47;1.63;;;18.70;99.90;;;;;;20003930;28;20108;-49
2021/07/04 17:30:44;;;;;;;3.00;1.13;;;18.80;99.90;;;;;;20026197;28;20055;-49
2021/07/04 17:40:47;;;;;;;2.47;0.82;;;18.70;99.90;;;;;;20085623;28;20478;-49
2021/07/04 17:50:48;;;;;;;2.53;1.00;;;18.40;99.90;;;;;;20464320;28;20043;-49
2021/07/04 18:00:49;;;;;;;4.72;1.05;;;18.20;99.90;;;;;;20484465;28;20049;-49
2021/07/04 18:10:51;;;;;;;2.95;1.05;;;18.40;99.90;;;;;;20467849;28;20104;-48
2021/07/04 18:20:52;;;;;;;3.75;1.05;;;18.60;99.90;;;;;;20470242;28;20768;-48
2021/07/04 18:30:53;;;;;;;3.15;0.93;;;18.30;99.90;;;;;;20467056;28;20118;-49
2021/07/04 18:40:55;;;;;;;2.00;1.02;;;18.20;99.90;;;;;;20472404;28;20043;-48
2021/07/04 18:50:56;;;;;;;3.63;1.27;;;18.10;99.90;;;;;;20485849;28;20342;-48
2021/07/04 19:00:58;;;;;;;1.60;0.50;;;18.10;99.90;;;;;;20474326;28;20120;-48
2021/07/04 19:10:59;;;;;;;0.75;0.38;;;18.10;99.90;;;;;;20490329;28;20132;-48
2021/07/04 19:21:00;;;;;;;2.03;0.68;;;17.90;99.90;;;;;;20475530;28;20110;-48
2021/07/04 19:31:02;;;;;;;1.88;0.52;;;17.90;99.90;;;;;;20487091;28;20039;-48
2021/07/04 19:41:04;;;;;;;2.78;0.90;;;17.80;99.90;;;;;;20490678;28;20509;-49
2021/07/04 19:51:06;;;;;;;2.72;0.70;;;17.60;99.90;;;;;;20461710;28;20057;-48
2021/07/04 20:01:07;;;;;;;1.55;0.40;;;17.50;99.90;;;;;;20481439;28;20530;-48
2021/07/04 20:11:08;;;;;;;1.27;0.40;;;17.40;99.90;;;;;;20490837;28;20050;-47
2021/07/04 20:21:10;;;;;;;1.75;0.55;;;17.10;99.90;;;;;;20483896;28;20047;-48
2021/07/04 20:31:12;;;;;;;2.72;0.90;;;17.10;99.90;;;;;;20480971;28;20043;-48
2021/07/04 20:41:14;;;;;;;1.52;0.63;;;16.90;99.90;;;;;;20489550;28;20572;-48
2021/07/04 20:51:16;;;;;;;2.08;0.77;;;16.60;99.90;;;;;;20485196;28;20384;-48
2021/07/04 21:01:17;;;;;;;2.03;0.70;;;16.60;99.90;;;;;;20488958;28;20042;-48
2021/07/04 21:11:18;;;;;;;3.75;1.38;;;16.50;99.90;;;;;;20494431;28;20177;-47
2021/07/04 21:21:20;;;;;;;3.47;1.00;;;16.50;99.90;;;;;;20483820;28;20051;-48
2021/07/04 21:31:21;;;;;;;1.60;0.65;;;16.30;99.90;;;;;;20495308;28;20050;-48
2021/07/04 21:41:22;;;;;;;2.95;0.90;;;16.40;99.90;;;;;;20485702;28;20079;-47
2021/07/04 21:51:23;;;;;;;1.58;0.57;;;16.20;99.90;;;;;;20483567;28;20129;-47
2021/07/04 22:01:24;;;;;;;1.75;0.60;;;16.10;99.90;;;;;;20481688;28;20059;-47
2021/07/04 22:11:25;;;;;;;1.15;0.47;;;16.10;99.90;;;;;;20482336;28;20046;-48
2021/07/04 22:21:27;;;;;;;3.00;0.80;;;15.90;99.90;;;;;;20480268;28;20514;-48
2021/07/04 22:31:30;;;;;;;2.42;1.20;;;15.90;99.90;;;;;;20490056;28;20054;-48
2021/07/04 22:41:31;;;;;;;2.58;0.98;;;15.80;99.90;;;;;;20470511;28;20067;-48
2021/07/04 22:51:32;;;;;;;5.13;0.98;;;15.70;99.90;;;;;;20486502;28;20186;-48
2021/07/04 23:01:34;;;;;;;3.33;1.35;;;15.70;99.90;;;;;;20484890;28;20126;-47
2021/07/04 23:11:36;;;;;;;5.20;1.73;;;15.60;99.90;;;;;;20482235;28;20055;-48
2021/07/04 23:21:37;;;;;;;3.42;1.15;;;15.60;99.90;;;;;;20475610;28;20047;-48
2021/07/04 23:31:38;;;;;;;3.72;1.15;;;15.60;99.90;;;;;;20488905;28;20047;-48
2021/07/04 23:41:39;;;;;;;3.38;1.48;;;15.70;99.90;;;;;;20501240;28;20034;-48
2021/07/04 23:51:40;;;;;;;5.00;2.10;;;15.70;99.90;;;;;;20500428;28;20170;-48
